Time;durP1;ratioP1;P1;durP2;ratioP2;P2;SDS_P1;SDS_P2;PMS_P1;PMS_P2;Temp;Humidity;BMP_temperature;BMP_pressure;BME280_temperature;BME280_humidity;BME280_pressure;Samples;Min_cycle;Max_cycle;Signal;HPM_P1;HPM_P2
2022/07/02 00:00:22;;;;;;;7.97;3.20;;;13.00;99.90;;;;;;5055967;28;20057;-91
2022/07/02 00:07:40;;;;;;;7.82;3.22;;;13.00;99.90;;;;;;5111684;28;20055;-91
2022/07/02 00:11:03;;;;;;;9.90;3.42;;;12.60;99.90;;;;;;5109853;28;20043;-91
2022/07/02 00:14:36;;;;;;;8.02;3.03;;;12.60;99.90;;;;;;5115057;28;20128;-91
2022/07/02 00:20:49;;;;;;;10.02;3.58;;;12.80;99.90;;;;;;5116973;28;20059;-90
2022/07/02 00:23:30;;;;;;;8.13;3.50;;;12.60;99.90;;;;;;5127442;28;20070;-91
2022/07/02 00:30:14;;;;;;;10.15;3.55;;;12.70;99.90;;;;;;5115594;28;20056;-90
2022/07/02 00:33:31;;;;;;;8.40;3.45;;;12.70;99.90;;;;;;5121529;22;20044;-91
2022/07/02 00:36:03;;;;;;;8.95;3.88;;;12.60;99.90;;;;;;5093914;28;20051;-91
2022/07/02 00:38:51;;;;;;;10.10;3.30;;;12.60;99.90;;;;;;5095462;28;20044;-91
2022/07/02 00:45:02;;;;;;;7.82;3.50;;;12.60;99.90;;;;;;5114823;28;20058;-91
2022/07/02 00:47:38;;;;;;;8.30;3.67;;;12.60;99.90;;;;;;5116141;28;20047;-91
2022/07/02 00:50:13;;;;;;;9.07;3.55;;;13.50;99.90;;;;;;5115922;28;20048;-91
2022/07/02 00:52:57;;;;;;;8.30;3.53;;;12.00;99.90;;;;;;5097033;28;20056;-91
2022/07/02 00:55:35;;;;;;;;;;;13.60;99.90;;;;;;5098718;28;20057;-91
2022/07/02 00:58:16;;;;;;;8.00;3.47;;;12.60;99.90;;;;;;5096749;28;19931;-91
2022/07/02 01:00:44;;;;;;;9.70;3.72;;;11.80;99.90;;;;;;5115355;28;20558;-91
2022/07/02 01:03:37;;;;;;;10.20;3.50;;;12.70;99.90;;;;;;5097257;28;20475;-91
2022/07/02 01:06:06;;;;;;;9.45;3.50;;;12.30;99.90;;;;;;5115059;28;20125;-91
2022/07/02 01:12:07;;;;;;;10.48;3.70;;;12.10;99.90;;;;;;5128452;22;20116;-91
2022/07/02 01:17:26;;;;;;;8.43;3.78;;;11.90;99.90;;;;;;5123261;22;20299;-90
2022/07/02 01:20:42;;;;;;;8.70;3.97;;;12.20;99.90;;;;;;5121853;22;20065;-91
2022/07/02 01:24:14;;;;;;;8.50;3.83;;;12.20;99.90;;;;;;5115267;28;20043;-91
2022/07/02 01:27:43;;;;;;;10.73;4.57;;;12.20;99.90;;;;;;5095926;28;20063;-91
2022/07/02 01:33:57;;;;;;;8.52;4.25;;;11.90;99.90;;;;;;5095789;28;20048;-91
2022/07/02 01:36:38;;;;;;;11.85;4.35;;;13.10;99.90;;;;;;5115351;28;20046;-91
2022/07/02 01:39:09;;;;;;;9.32;4.20;;;12.10;99.90;;;;;;5097102;28;20039;-91
2022/07/02 01:41:53;;;;;;;9.95;4.65;;;12.50;99.90;;;;;;5114787;28;20042;-91
2022/07/02 01:44:35;;;;;;;10.05;4.63;;;13.20;99.90;;;;;;5096250;28;20040;-91
2022/07/02 01:47:20;;;;;;;9.93;4.70;;;11.90;99.90;;;;;;5113890;28;20494;-92
2022/07/02 01:49:58;;;;;;;11.65;5.53;;;12.50;99.90;;;;;;5096094;28;20047;-91
2022/07/02 01:52:26;;;;;;;11.63;4.50;;;12.00;99.90;;;;;;5115074;28;20066;-90
2022/07/02 01:54:58;;;;;;;9.65;4.57;;;11.80;99.90;;;;;;5113729;28;20079;-90
2022/07/02 01:57:33;;;;;;;10.82;4.85;;;12.50;99.90;;;;;;5096713;28;20051;-91
2022/07/02 02:00:17;;;;;;;9.57;4.80;;;12.80;99.90;;;;;;5111313;22;20047;-90
2022/07/02 02:03:43;;;;;;;10.00;4.70;;;11.90;99.90;;;;;;5095383;28;20043;-91
2022/07/02 02:06:38;;;;;;;10.70;4.82;;;11.70;99.90;;;;;;5095410;28;20104;-90
2022/07/02 02:09:13;;;;;;;11.18;4.88;;;11.80;99.90;;;;;;5094910;28;20054;-90
2022/07/02 02:11:41;;;;;;;9.93;5.10;;;12.60;99.90;;;;;;5084973;22;20072;-90
2022/07/02 02:14:26;;;;;;;10.40;4.20;;;11.80;99.90;;;;;;5072156;28;20466;-90
2022/07/02 02:17:14;;;;;;;11.27;4.55;;;12.70;99.90;;;;;;5071418;28;20052;-90
2022/07/02 02:19:48;;;;;;;11.82;4.70;;;11.80;99.90;;;;;;5071762;28;20450;-90
2022/07/02 02:22:52;;;;;;;12.27;5.32;;;11.10;99.90;;;;;;5073061;28;20048;-90
2022/07/02 02:26:18;;;;;;;9.35;4.70;;;11.80;99.90;;;;;;5073038;28;20084;-91
2022/07/02 02:29:08;;;;;;;12.40;4.95;;;11.80;99.90;;;;;;4996192;28;20107;-90
2022/07/02 02:31:33;;;;;;;12.85;5.35;;;11.90;99.90;;;;;;4996169;28;20097;-90
2022/07/02 02:34:08;;;;;;;11.07;5.13;;;12.90;99.90;;;;;;4995657;28;20147;-91
2022/07/02 02:36:39;;;;;;;10.63;4.80;;;12.70;99.90;;;;;;4995121;28;20053;-90
2022/07/02 02:39:36;;;;;;;;;;;;;;;;;;;;;
2022/07/02 02:41:51;;;;;;;11.85;4.88;;;11.80;99.90;;;;;;4990265;28;20092;-91
2022/07/02 02:44:29;;;;;;;11.57;4.90;;;11.20;99.90;;;;;;4995436;28;20041;-91
2022/07/02 02:47:07;;;;;;;12.05;5.40;;;12.80;99.90;;;;;;4994872;28;20048;-90
2022/07/02 02:49:41;;;;;;;10.90;5.05;;;11.70;99.90;;;;;;4995292;28;20050;-90
2022/07/02 02:52:22;;;;;;;12.07;5.32;;;12.50;99.90;;;;;;4994710;28;20505;-91
2022/07/02 02:57:16;;;;;;;11.30;5.15;;;11.60;99.90;;;;;;5091092;28;20059;-91
2022/07/02 02:59:42;;;;;;;14.98;6.15;;;11.60;99.90;;;;;;5093199;28;20036;-91
2022/07/02 03:02:11;;;;;;;12.40;5.20;;;12.00;99.90;;;;;;5092424;28;20493;-91
2022/07/02 03:05:09;;;;;;;11.32;5.70;;;11.60;99.90;;;;;;5093048;28;20040;-91
2022/07/02 03:08:00;;;;;;;12.48;5.57;;;12.20;99.90;;;;;;5093705;28;20051;-91
2022/07/02 03:10:40;;;;;;;11.65;5.75;;;11.70;99.90;;;;;;5092187;28;20040;-91
2022/07/02 03:13:18;;;;;;;12.05;5.80;;;12.70;99.90;;;;;;5092290;28;20051;-91
2022/07/02 03:15:47;;;;;;;10.77;5.50;;;12.60;99.90;;;;;;5091700;28;20093;-91
2022/07/02 03:18:19;;;;;;;12.02;5.95;;;12.40;99.90;;;;;;5091383;28;20135;-90
2022/07/02 03:21:05;;;;;;;11.25;6.18;;;11.70;99.90;;;;;;5091883;28;20483;-91
2022/07/02 03:23:31;;;;;;;13.30;6.10;;;12.50;99.90;;;;;;5093578;28;20487;-92
2022/07/02 03:26:21;;;;;;;12.55;5.88;;;11.60;99.90;;;;;;5098591;28;20036;-91
2022/07/02 03:28:47;;;;;;;11.98;5.78;;;11.60;99.90;;;;;;5106336;28;20044;-90
2022/07/02 03:31:43;;;;;;;11.63;5.75;;;11.50;99.90;;;;;;5101636;28;20134;-91
2022/07/02 03:50:42;;;;;;;11.38;5.38;;;11.50;99.90;;;;;;5095066;28;20091;-91
2022/07/02 03:53:12;;;;;;;12.13;6.05;;;11.30;99.90;;;;;;5094915;28;20048;-90
2022/07/02 03:55:46;;;;;;;13.32;6.28;;;11.40;99.90;;;;;;5111869;28;20395;-91
2022/07/02 03:58:15;;;;;;;12.52;6.40;;;12.40;99.90;;;;;;5094823;28;20081;-91
2022/07/02 04:03:28;;;;;;;11.73;6.07;;;11.50;99.90;;;;;;5349768;22;20522;-90
2022/07/02 04:08:47;;;;;;;12.13;6.35;;;11.60;99.90;;;;;;5384211;22;20058;-91
2022/07/02 04:11:16;;;;;;;12.52;6.18;;;11.40;99.90;;;;;;5113451;28;20484;-91
2022/07/02 04:13:47;;;;;;;12.98;6.28;;;11.60;99.90;;;;;;5094202;28;20040;-91
2022/07/02 04:16:35;;;;;;;15.07;6.30;;;12.50;99.90;;;;;;5093685;28;20122;-91
2022/07/02 04:19:28;;;;;;;13.27;6.53;;;11.70;99.90;;;;;;5106967;28;20062;-92
2022/07/02 04:22:28;;;;;;;13.07;6.35;;;11.80;99.90;;;;;;5093765;28;20043;-91
2022/07/02 04:28:52;;;;;;;11.60;6.47;;;12.00;99.90;;;;;;5112261;28;20066;-91
2022/07/02 04:31:27;;;;;;;12.63;6.80;;;11.40;99.90;;;;;;5095275;28;20079;-91
2022/07/02 04:34:08;;;;;;;13.73;6.72;;;12.50;99.90;;;;;;5113265;28;20051;-91
2022/07/02 04:36:44;;;;;;;;;;;;;;;;;;;;;
2022/07/02 04:39:53;;;;;;;14.95;6.93;;;12.30;99.90;;;;;;5092654;28;20043;-91
2022/07/02 04:45:14;;;;;;;12.52;6.72;;;12.40;99.90;;;;;;5433398;22;20052;-91
2022/07/02 04:47:49;;;;;;;15.25;6.63;;;13.20;99.90;;;;;;5097849;28;20060;-91
2022/07/02 04:50:20;;;;;;;13.18;6.45;;;13.40;99.90;;;;;;5098455;28;20390;-91
2022/07/02 04:53:01;;;;;;;11.52;5.85;;;12.60;99.90;;;;;;5115926;28;20048;-91
2022/07/02 04:55:36;;;;;;;13.13;6.40;;;12.70;99.90;;;;;;5097803;28;20044;-92
2022/07/02 04:58:11;;;;;;;12.23;6.20;;;13.80;99.90;;;;;;5096968;28;20044;-91
2022/07/02 05:01:04;;;;;;;12.73;5.72;;;12.70;99.90;;;;;;5096598;28;20089;-91
2022/07/02 05:03:42;;;;;;;13.20;6.53;;;12.90;99.90;;;;;;5062959;28;20384;-91
2022/07/02 05:09:34;;;;;;;13.88;6.28;;;13.60;99.90;;;;;;5116032;28;20046;-90
2022/07/02 05:15:48;;;;;;;14.43;6.22;;;12.90;99.90;;;;;;5135640;27;20051;-91
2022/07/02 05:25:59;;;;;;;11.82;6.22;;;13.90;99.90;;;;;;5069820;28;20042;-91
2022/07/02 05:28:41;;;;;;;11.32;6.18;;;14.30;99.90;;;;;;5397711;22;20010;-91
2022/07/02 05:34:47;;;;;;;15.05;7.13;;;13.70;99.90;;;;;;5095030;28;20488;-90
2022/07/02 05:37:23;;;;;;;13.30;6.50;;;15.20;99.90;;;;;;5095252;28;20040;-90
2022/07/02 05:47:23;;;;;;;12.27;6.25;;;14.50;99.90;;;;;;5093627;28;20089;-91
2022/07/02 05:50:01;;;;;;;12.23;6.30;;;14.70;99.90;;;;;;5076664;28;20135;-91
2022/07/02 05:59:07;;;;;;;12.00;5.03;;;14.90;99.90;;;;;;5230519;22;20081;-91
2022/07/02 06:02:04;;;;;;;10.85;5.00;;;15.00;99.90;;;;;;5135088;27;20060;-91
2022/07/02 06:09:40;;;;;;;10.63;4.53;;;15.30;99.90;;;;;;5093731;28;20396;-95
2022/07/02 06:28:41;;;;;;;10.95;4.22;;;16.00;99.90;;;;;;5318594;22;20044;-92
2022/07/02 06:32:05;;;;;;;9.95;4.47;;;16.00;99.90;;;;;;5097970;28;20052;-91
2022/07/02 06:34:57;;;;;;;10.27;3.80;;;15.90;99.90;;;;;;5130187;28;20043;-91
2022/07/02 06:37:32;;;;;;;11.75;5.28;;;16.20;99.90;;;;;;5105345;28;20064;-89
2022/07/02 06:49:19;;;;;;;10.05;3.60;;;16.70;99.90;;;;;;4993715;28;20073;-95
2022/07/02 07:02:58;;;;;;;;;;;;;;;;;;;;;
2022/07/02 07:57:16;;;;;;;5.28;2.00;;;19.10;99.90;;;;;;5051008;28;20103;-93
2022/07/02 07:59:42;;;;;;;5.13;1.75;;;19.20;99.90;;;;;;5043422;28;20186;-93
2022/07/02 09:33:50;;;;;;;7.47;1.80;;;21.20;98.60;;;;;;5054789;28;20075;-93
2022/07/02 09:44:07;;;;;;;7.45;2.00;;;21.60;99.90;;;;;;5063460;28;20045;-90
2022/07/02 09:56:45;;;;;;;;;;;;;;;;;;;;;
2022/07/02 10:37:11;;;;;;;7.20;1.90;;;23.40;95.70;;;;;;5093880;28;20414;-90
2022/07/02 11:18:05;;;;;;;7.97;2.10;;;23.20;96.50;;;;;;4916539;29;20056;-88
2022/07/02 11:20:46;;;;;;;6.22;1.90;;;22.80;96.10;;;;;;5354861;22;20603;-89
2022/07/02 11:42:06;;;;;;;7.82;2.00;;;24.30;93.80;;;;;;5069478;28;20055;-88
2022/07/02 11:45:15;;;;;;;5.78;1.85;;;24.70;95.20;;;;;;5069566;28;20541;-92
2022/07/02 11:48:34;;;;;;;6.37;1.80;;;25.10;94.60;;;;;;5063875;28;20082;-90
2022/07/02 11:58:54;;;;;;;6.60;1.88;;;25.60;94.20;;;;;;5013805;28;20049;-92
2022/07/02 12:04:56;;;;;;;131.80;18.45;;;25.40;93.50;;;;;;5241744;22;20458;-91
2022/07/02 12:14:57;;;;;;;7.35;1.92;;;24.30;93.20;;;;;;5303817;22;20040;-91
2022/07/02 12:17:35;;;;;;;5.53;1.80;;;24.70;93.90;;;;;;5091596;22;20061;-90
2022/07/02 12:24:40;;;;;;;6.53;1.80;;;25.50;93.50;;;;;;5054954;28;20048;-92
2022/07/02 12:27:27;;;;;;;7.13;1.75;;;25.90;91.10;;;;;;5053020;28;20095;-91
2022/07/02 12:33:02;;;;;;;5.57;1.63;;;25.40;91.40;;;;;;5131285;22;20056;-89
2022/07/02 12:40:09;;;;;;;7.15;2.20;;;25.00;91.00;;;;;;5096268;28;20052;-91
2022/07/02 12:51:43;;;;;;;;;;;;;;;;;;;;;
2022/07/02 12:58:30;;;;;;;4.93;2.15;;;24.70;92.70;;;;;;5013918;28;20085;-90
2022/07/02 13:01:24;;;;;;;4.10;1.40;;;24.70;93.30;;;;;;4993327;28;20073;-91
2022/07/02 13:03:53;;;;;;;5.00;1.55;;;24.90;90.80;;;;;;4980569;28;20053;-90
2022/07/02 13:06:24;;;;;;;4.32;1.55;;;24.70;92.10;;;;;;5012912;28;20057;-90
2022/07/02 13:12:52;;;;;;;4.32;1.60;;;24.50;91.70;;;;;;5102136;28;20459;-91
2022/07/02 13:15:33;;;;;;;4.82;1.63;;;24.80;92.10;;;;;;5096241;28;20044;-90
2022/07/02 13:18:14;;;;;;;5.05;1.73;;;25.00;92.30;;;;;;5095607;28;20039;-89
2022/07/02 13:20:55;;;;;;;6.75;1.67;;;25.20;92.00;;;;;;5096013;28;20130;-91
2022/07/02 13:27:16;;;;;;;8.90;1.77;;;25.70;90.70;;;;;;5050732;28;20048;-89
2022/07/02 13:29:45;;;;;;;2.88;1.40;;;25.50;90.60;;;;;;5052698;28;20060;-89
2022/07/02 13:33:07;;;;;;;6.90;1.60;;;25.40;90.50;;;;;;5350177;22;20019;-90
2022/07/02 13:40:09;;;;;;;4.88;1.60;;;25.40;92.20;;;;;;5053489;28;20099;-89
2022/07/02 13:42:54;;;;;;;3.67;1.50;;;25.90;89.20;;;;;;5036286;28;20504;-88
2022/07/02 13:51:32;;;;;;;4.97;1.52;;;26.20;87.70;;;;;;5034581;28;20072;-88
2022/07/02 13:57:43;;;;;;;7.07;1.88;;;26.50;88.30;;;;;;5076156;22;20051;-89
2022/07/02 14:00:09;;;;;;;6.47;1.83;;;26.70;90.10;;;;;;5072455;28;20393;-89
2022/07/02 14:10:40;;;;;;;6.10;2.00;;;26.00;86.50;;;;;;4995034;28;20057;-90
2022/07/02 14:13:21;;;;;;;5.45;1.70;;;25.60;89.10;;;;;;4917490;29;20516;-89
2022/07/02 14:16:08;;;;;;;7.32;1.90;;;25.40;90.30;;;;;;4933288;29;20063;-89
2022/07/02 14:19:17;;;;;;;5.43;1.60;;;25.40;90.00;;;;;;4934905;29;20103;-89
2022/07/02 14:21:46;;;;;;;4.25;1.50;;;25.50;86.60;;;;;;4917174;29;20056;-88
2022/07/02 14:24:24;;;;;;;5.65;1.55;;;25.20;89.90;;;;;;4917918;29;20079;-87
2022/07/02 14:53:47;;;;;;;6.03;1.60;;;26.50;87.40;;;;;;5067426;28;20052;-87
2022/07/02 15:04:04;;;;;;;7.07;1.77;;;26.80;85.40;;;;;;5092150;28;20039;-87
2022/07/02 15:06:40;;;;;;;6.47;1.70;;;27.10;87.50;;;;;;5092418;28;20047;-88
2022/07/02 15:09:16;;;;;;;6.10;1.75;;;27.20;84.50;;;;;;5060679;28;20044;-89
2022/07/02 15:11:57;;;;;;;4.85;1.42;;;27.00;85.90;;;;;;5074267;28;20472;-89
2022/07/02 15:18:11;;;;;;;6.50;1.80;;;27.00;86.50;;;;;;5090941;28;20089;-87
2022/07/02 15:20:48;;;;;;;3.13;1.40;;;26.80;85.50;;;;;;5071449;28;20036;-88
2022/07/02 15:24:09;;;;;;;8.85;2.05;;;26.70;84.90;;;;;;5078606;28;20044;-89
2022/07/02 15:27:05;;;;;;;6.85;1.60;;;26.80;85.60;;;;;;5073684;28;20096;-88
2022/07/02 15:34:17;;;;;;;5.70;1.60;;;27.10;87.00;;;;;;5395181;22;20198;-89
2022/07/02 15:37:37;;;;;;;7.25;1.80;;;27.30;84.80;;;;;;5054813;28;20115;-90
2022/07/02 15:47:15;;;;;;;;;;;26.50;85.70;;;;;;4933837;29;20066;-90
2022/07/02 15:50:31;;;;;;;5.82;1.58;;;26.40;83.10;;;;;;4915092;29;20017;-88
2022/07/02 15:53:21;;;;;;;6.28;1.60;;;26.80;83.00;;;;;;4899129;29;20052;-89
2022/07/02 15:56:02;;;;;;;7.95;1.90;;;27.10;83.20;;;;;;4954270;29;20055;-88
2022/07/02 15:59:11;;;;;;;5.07;1.63;;;26.90;81.20;;;;;;4988504;28;20080;-89
2022/07/02 16:01:43;;;;;;;4.50;1.50;;;26.30;80.30;;;;;;5012115;28;20088;-90
2022/07/02 16:08:25;;;;;;;3.20;1.30;;;25.90;82.30;;;;;;5010089;28;20084;-87
2022/07/02 16:11:06;;;;;;;4.82;1.60;;;25.60;82.80;;;;;;4993752;28;20041;-88
2022/07/02 16:13:53;;;;;;;8.75;3.90;;;25.50;85.20;;;;;;4993287;28;20494;-93
2022/07/02 16:16:22;;;;;;;7.00;2.20;;;25.50;84.90;;;;;;5010283;28;20046;-87
2022/07/02 16:19:42;;;;;;;11.35;6.10;;;25.80;85.60;;;;;;4993137;28;20081;-89
2022/07/02 16:22:09;;;;;;;6.53;1.73;;;25.80;87.10;;;;;;4976324;28;20217;-89
2022/07/02 16:24:59;;;;;;;5.32;1.55;;;26.70;86.60;;;;;;4993734;28;20097;-89
2022/07/02 16:27:24;;;;;;;4.78;1.50;;;26.90;85.40;;;;;;5022466;28;20053;-89
2022/07/02 16:30:40;;;;;;;5.82;1.85;;;27.20;86.20;;;;;;5060846;28;20084;-89
2022/07/02 16:41:33;;;;;;;6.23;1.90;;;28.20;82.70;;;;;;5025601;28;20088;-88
2022/07/02 16:44:42;;;;;;;7.72;2.75;;;27.70;82.10;;;;;;5023142;28;20295;-89
2022/07/02 17:21:47;;;;;;;5.32;1.75;;;28.30;78.80;;;;;;4947941;28;20043;-88
2022/07/02 17:25:02;;;;;;;4.22;1.45;;;27.50;77.90;;;;;;4947896;28;20118;-89
2022/07/02 17:50:38;;;;;;;5.93;1.55;;;25.80;78.70;;;;;;4976200;28;20063;-88
2022/07/02 17:53:29;;;;;;;6.53;1.60;;;25.40;80.30;;;;;;4979389;28;20043;-93
2022/07/02 17:56:14;;;;;;;4.90;1.60;;;25.30;81.10;;;;;;4959309;28;20055;-88
2022/07/02 17:58:51;;;;;;;5.20;1.60;;;25.10;80.20;;;;;;4963531;28;20046;-88
2022/07/02 18:01:37;;;;;;;3.70;1.45;;;25.00;80.70;;;;;;4976677;28;20047;-87
2022/07/02 18:04:18;;;;;;;5.22;1.73;;;24.90;81.30;;;;;;5053533;28;20518;-88
2022/07/02 18:06:47;;;;;;;7.05;1.75;;;24.80;80.50;;;;;;5409739;22;20072;-87
2022/07/02 18:09:12;;;;;;;3.50;1.38;;;24.70;81.50;;;;;;5073803;28;20079;-88
2022/07/02 18:11:38;;;;;;;8.07;1.80;;;24.80;81.80;;;;;;5054934;28;20389;-87
2022/07/02 18:14:04;;;;;;;7.88;1.88;;;24.70;81.80;;;;;;5055398;28;20476;-88
2022/07/02 18:16:30;;;;;;;8.45;2.30;;;24.60;82.60;;;;;;5073622;28;20076;-87
2022/07/02 18:18:56;;;;;;;6.63;1.80;;;24.50;83.50;;;;;;5072125;28;20492;-87
2022/07/02 18:21:22;;;;;;;6.40;2.03;;;24.40;84.80;;;;;;5054650;28;20117;-88
2022/07/02 18:23:50;;;;;;;5.47;1.70;;;24.40;85.80;;;;;;5054949;28;20602;-88
2022/07/02 18:26:16;;;;;;;5.32;1.80;;;24.50;86.60;;;;;;5054469;28;20044;-88
2022/07/02 18:28:41;;;;;;;5.15;1.50;;;24.60;86.80;;;;;;5054770;28;20071;-88
2022/07/02 18:31:13;;;;;;;16.42;2.63;;;24.80;86.90;;;;;;5073410;28;20051;-88
2022/07/02 18:33:42;;;;;;;6.20;1.50;;;24.80;86.60;;;;;;5072180;28;20557;-90
2022/07/02 18:36:23;;;;;;;3.83;1.40;;;24.90;87.70;;;;;;5043913;28;20052;-88
2022/07/02 18:38:51;;;;;;;5.45;1.73;;;24.30;88.40;;;;;;5054361;28;20048;-88
2022/07/02 18:41:32;;;;;;;5.75;1.38;;;24.20;88.60;;;;;;5071967;28;20041;-88
2022/07/02 18:44:17;;;;;;;8.35;1.50;;;23.80;89.10;;;;;;5051794;28;20044;-89
2022/07/02 18:46:45;;;;;;;4.70;1.50;;;23.70;89.10;;;;;;5058645;28;20041;-89
2022/07/02 18:49:17;;;;;;;4.20;1.40;;;23.60;89.70;;;;;;5054607;28;20067;-88
2022/07/02 18:54:23;;;;;;;6.63;1.50;;;23.30;90.20;;;;;;5069358;28;20056;-89
2022/07/02 18:56:51;;;;;;;3.17;1.30;;;23.20;90.70;;;;;;5072734;28;20041;-85
2022/07/02 18:59:26;;;;;;;5.55;1.60;;;23.20;90.70;;;;;;5075400;28;20098;-91
2022/07/02 19:02:03;;;;;;;3.83;1.50;;;23.40;91.30;;;;;;5067134;28;20016;-90
2022/07/02 19:04:44;;;;;;;5.50;1.60;;;22.80;91.90;;;;;;5095683;28;20041;-88
2022/07/02 19:07:25;;;;;;;3.58;1.45;;;22.60;92.40;;;;;;5063766;28;20044;-89
2022/07/02 19:10:19;;;;;;;5.28;1.58;;;23.20;92.60;;;;;;5045023;28;20037;-89
2022/07/02 19:12:57;;;;;;;5.53;1.60;;;22.40;92.40;;;;;;5051047;28;20048;-89
2022/07/02 19:19:01;;;;;;;4.28;1.60;;;22.00;92.80;;;;;;5067377;28;20571;-92
2022/07/02 19:21:36;;;;;;;4.20;1.50;;;22.00;92.70;;;;;;5073005;28;20400;-91
2022/07/02 19:24:23;;;;;;;4.78;1.60;;;21.90;93.90;;;;;;5007706;28;20493;-91
2022/07/02 19:37:04;;;;;;;4.35;1.60;;;21.70;95.60;;;;;;5074305;28;20039;-91
2022/07/02 19:39:41;;;;;;;4.20;1.40;;;21.60;96.00;;;;;;5070176;28;20792;-89
2022/07/02 19:42:35;;;;;;;4.50;1.50;;;21.50;95.80;;;;;;5055209;28;20052;-93
2022/07/02 19:45:09;;;;;;;2.67;1.40;;;21.40;95.70;;;;;;5055977;28;20556;-92
2022/07/02 19:48:12;;;;;;;3.72;1.50;;;21.40;95.70;;;;;;5195347;22;20059;-91
2022/07/02 19:54:22;;;;;;;4.95;1.70;;;21.20;96.30;;;;;;5112139;28;20039;-91
2022/07/02 19:56:53;;;;;;;5.20;1.50;;;21.20;97.60;;;;;;5108756;28;20035;-91
2022/07/02 19:59:22;;;;;;;5.45;1.60;;;21.10;97.40;;;;;;5088948;28;20058;-89
2022/07/02 20:06:06;;;;;;;5.57;2.00;;;20.70;99.20;;;;;;5063594;28;20071;-89
2022/07/02 20:09:18;;;;;;;6.47;1.80;;;20.80;99.90;;;;;;5041604;28;20072;-91
2022/07/02 20:11:52;;;;;;;5.05;1.65;;;20.70;99.90;;;;;;4987016;28;20073;-89
2022/07/02 20:14:17;;;;;;;6.18;1.95;;;20.60;99.90;;;;;;4996903;28;20066;-90
2022/07/02 20:16:49;;;;;;;4.95;1.90;;;20.60;99.90;;;;;;4997935;28;20077;-89
2022/07/02 20:19:48;;;;;;;8.38;2.13;;;20.50;99.90;;;;;;4983681;28;20049;-90
2022/07/02 20:25:43;;;;;;;6.43;2.03;;;20.10;99.90;;;;;;4994436;28;20865;-90
2022/07/02 20:28:19;;;;;;;6.80;1.90;;;20.30;99.90;;;;;;4996056;28;20049;-87
2022/07/02 20:30:56;;;;;;;7.20;2.20;;;20.20;99.90;;;;;;4981020;28;20065;-87
2022/07/02 20:33:42;;;;;;;6.78;2.00;;;20.20;99.90;;;;;;5015119;28;20054;-87
2022/07/02 20:36:13;;;;;;;6.22;1.98;;;20.20;99.90;;;;;;5035123;28;20049;-86
2022/07/02 20:38:57;;;;;;;5.97;1.83;;;20.10;99.90;;;;;;5060008;28;20033;-87
2022/07/02 20:41:39;;;;;;;4.43;1.70;;;20.80;99.90;;;;;;5078361;28;20177;-87
2022/07/02 20:44:20;;;;;;;6.82;2.30;;;20.00;99.90;;;;;;5060670;28;20075;-87
2022/07/02 20:46:58;;;;;;;7.25;2.58;;;19.90;99.90;;;;;;5059921;28;20131;-86
2022/07/02 20:49:48;;;;;;;7.27;2.40;;;19.90;99.90;;;;;;5074782;28;20403;-87
2022/07/02 20:52:29;;;;;;;7.03;2.58;;;19.90;99.90;;;;;;5106341;22;20051;-87
2022/07/02 20:55:03;;;;;;;7.32;2.20;;;19.90;99.90;;;;;;5079734;28;20083;-87
2022/07/02 20:58:35;;;;;;;5.75;2.10;;;19.80;99.90;;;;;;5090894;22;20471;-87
2022/07/02 21:02:10;;;;;;;8.07;2.38;;;19.80;99.90;;;;;;5058143;28;20629;-87
2022/07/02 21:05:41;;;;;;;6.18;2.05;;;19.50;99.90;;;;;;5076299;28;20056;-87
2022/07/02 21:09:30;;;;;;;6.40;2.15;;;19.60;99.90;;;;;;5013653;28;20054;-86
2022/07/02 21:13:00;;;;;;;6.18;2.10;;;20.10;99.90;;;;;;5014457;28;20062;-87
2022/07/02 21:16:15;;;;;;;7.40;2.40;;;19.60;99.90;;;;;;4996368;28;20142;-86
2022/07/02 21:18:45;;;;;;;8.07;2.60;;;19.60;99.90;;;;;;4994117;28;20133;-88
2022/07/02 21:21:14;;;;;;;8.80;2.50;;;19.80;99.90;;;;;;4977584;28;20054;-88
2022/07/02 21:23:55;;;;;;;8.48;2.67;;;20.20;99.90;;;;;;4985330;28;20171;-88
2022/07/02 21:26:39;;;;;;;7.30;2.53;;;20.40;99.90;;;;;;4995604;28;20492;-88
2022/07/02 21:29:23;;;;;;;7.55;2.72;;;19.60;99.90;;;;;;4995411;28;20046;-87
2022/07/02 21:32:04;;;;;;;;;;;19.70;99.90;;;;;;4996189;28;20494;-87
2022/07/02 21:34:35;;;;;;;10.20;2.60;;;19.70;99.90;;;;;;4979485;28;20421;-87
2022/07/02 21:37:01;;;;;;;8.35;2.58;;;19.70;99.90;;;;;;4978719;28;20054;-87
2022/07/02 21:39:27;;;;;;;6.65;2.60;;;19.70;99.90;;;;;;4979181;28;20057;-87
2022/07/02 21:42:02;;;;;;;6.97;2.60;;;19.70;99.90;;;;;;4994876;28;20046;-87
2022/07/02 21:44:30;;;;;;;6.78;2.50;;;19.70;99.90;;;;;;4982150;28;20435;-88
2022/07/02 21:47:27;;;;;;;7.72;2.47;;;20.10;99.90;;;;;;5039656;28;20508;-87
2022/07/02 21:49:53;;;;;;;7.60;2.58;;;19.50;99.90;;;;;;5038377;28;20485;-88
2022/07/02 21:52:31;;;;;;;8.70;2.70;;;19.60;99.90;;;;;;5038434;28;20095;-88
2022/07/02 21:55:03;;;;;;;7.30;2.30;;;19.60;99.90;;;;;;5056095;28;20374;-88
2022/07/02 22:00:11;;;;;;;7.72;2.53;;;19.60;99.90;;;;;;5101800;22;20044;-87
2022/07/02 22:02:36;;;;;;;9.35;2.78;;;19.60;99.90;;;;;;5097081;28;20128;-88
2022/07/02 22:05:02;;;;;;;6.68;2.47;;;19.60;99.90;;;;;;5079096;28;20076;-87
2022/07/02 22:07:28;;;;;;;8.10;2.80;;;19.50;99.90;;;;;;5083189;28;20493;-87
2022/07/02 22:09:54;;;;;;;10.82;2.80;;;19.50;99.90;;;;;;5089016;28;20052;-87
2022/07/02 22:12:20;;;;;;;7.03;2.70;;;19.50;99.90;;;;;;5093053;28;20257;-87
2022/07/02 22:14:48;;;;;;;8.15;2.22;;;19.60;99.90;;;;;;5101009;28;20597;-87
2022/07/02 22:17:13;;;;;;;7.78;2.72;;;19.40;99.90;;;;;;5077914;28;20044;-87
2022/07/02 22:19:39;;;;;;;6.30;2.30;;;19.50;99.90;;;;;;5077639;28;20043;-87
2022/07/02 22:22:05;;;;;;;7.45;2.38;;;19.50;99.90;;;;;;5096878;28;20109;-87
2022/07/02 22:24:31;;;;;;;7.32;2.40;;;19.30;99.90;;;;;;5097588;28;20044;-87
2022/07/02 22:26:58;;;;;;;9.00;2.72;;;19.30;99.90;;;;;;5077344;28;20059;-87
2022/07/02 22:29:27;;;;;;;10.93;2.90;;;19.30;99.90;;;;;;5077530;28;20044;-88
2022/07/02 22:31:53;;;;;;;8.55;2.60;;;19.20;99.90;;;;;;5076654;28;20103;-87
2022/07/02 22:34:19;;;;;;;7.75;2.65;;;19.30;99.90;;;;;;5095273;28;20072;-87
2022/07/02 22:36:44;;;;;;;8.23;2.60;;;19.20;99.90;;;;;;5077398;28;20055;-87
2022/07/02 22:39:10;;;;;;;6.55;2.45;;;19.50;99.90;;;;;;5095898;28;20040;-87
2022/07/02 22:41:45;;;;;;;8.00;2.58;;;19.20;99.90;;;;;;5119002;22;20047;-88
2022/07/02 22:44:11;;;;;;;8.15;2.50;;;18.60;99.90;;;;;;5115704;28;20479;-88
2022/07/02 22:46:37;;;;;;;6.78;2.50;;;19.10;99.90;;;;;;5110644;22;20060;-87
2022/07/02 22:49:02;;;;;;;8.65;2.55;;;19.00;99.90;;;;;;5057309;28;20166;-87
2022/07/02 22:51:28;;;;;;;6.78;2.50;;;19.00;99.90;;;;;;5057705;28;20036;-87
2022/07/02 22:53:54;;;;;;;7.65;2.40;;;19.00;99.90;;;;;;5074239;28;20048;-87
2022/07/02 22:56:25;;;;;;;7.90;2.60;;;19.00;99.90;;;;;;5057913;28;20115;-87
2022/07/02 22:58:51;;;;;;;7.57;2.78;;;18.90;99.90;;;;;;5075833;28;20469;-87
2022/07/02 23:01:16;;;;;;;7.35;2.60;;;19.00;99.90;;;;;;5057873;28;20558;-87
2022/07/02 23:03:42;;;;;;;8.10;2.75;;;19.00;99.90;;;;;;5076596;28;20533;-87
2022/07/02 23:06:09;;;;;;;7.90;2.67;;;18.90;99.90;;;;;;5058020;28;20040;-87
2022/07/02 23:08:35;;;;;;;7.97;2.63;;;19.00;99.90;;;;;;5073581;28;20044;-87
2022/07/02 23:11:00;;;;;;;6.35;2.45;;;19.00;99.90;;;;;;5056921;28;20049;-87
2022/07/02 23:13:26;;;;;;;7.18;2.70;;;19.40;99.90;;;;;;5075136;28;20159;-87
2022/07/02 23:15:52;;;;;;;7.85;2.67;;;18.90;99.90;;;;;;5074201;28;20097;-87
2022/07/02 23:18:18;;;;;;;7.90;2.88;;;18.90;99.90;;;;;;5075099;28;20071;-87
2022/07/02 23:20:44;;;;;;;9.30;2.78;;;18.80;99.90;;;;;;5074568;28;20123;-87
2022/07/02 23:23:10;;;;;;;7.00;2.58;;;18.80;99.90;;;;;;5055425;28;20095;-87
2022/07/02 23:25:36;;;;;;;8.52;2.50;;;18.90;99.90;;;;;;5056724;28;20059;-87
2022/07/02 23:28:02;;;;;;;7.72;2.50;;;18.80;99.90;;;;;;5054912;28;20048;-87
2022/07/02 23:30:27;;;;;;;6.75;2.55;;;18.80;99.90;;;;;;5074723;28;20037;-87
2022/07/02 23:32:53;;;;;;;6.97;2.60;;;18.80;99.90;;;;;;5074191;28;20584;-87
2022/07/02 23:35:19;;;;;;;10.32;2.90;;;18.70;99.90;;;;;;5056417;28;20037;-87
2022/07/02 23:37:44;;;;;;;8.77;3.05;;;19.20;99.90;;;;;;5055756;28;20498;-87
2022/07/02 23:40:13;;;;;;;7.68;2.85;;;18.70;99.90;;;;;;5068735;23;20404;-88
2022/07/02 23:42:39;;;;;;;7.18;2.72;;;19.40;99.90;;;;;;5072221;28;20048;-87
2022/07/02 23:45:06;;;;;;;7.22;2.90;;;18.60;99.90;;;;;;5071467;28;20138;-87
2022/07/02 23:47:32;;;;;;;8.00;2.80;;;18.60;99.90;;;;;;5071872;28;20127;-87
2022/07/02 23:49:57;;;;;;;7.30;3.00;;;18.60;99.90;;;;;;5076055;28;20050;-87
2022/07/02 23:52:24;;;;;;;7.55;2.90;;;18.50;99.90;;;;;;5077468;28;20483;-87
2022/07/02 23:54:49;;;;;;;8.13;2.90;;;18.50;99.90;;;;;;5075715;28;20051;-87
2022/07/02 23:57:15;;;;;;;8.15;2.97;;;18.40;99.90;;;;;;5075101;28;20488;-87
2022/07/02 23:59:41;;;;;;;8.15;3.33;;;18.40;99.90;;;;;;5076100;28;20045;-87
